createdAt,value
2023-03-04T00:00:31.602Z,2.48
2023-03-04T00:02:58.758Z,2.49
2023-03-04T00:05:25.856Z,2.47
2023-03-04T00:07:53.107Z,2.53
2023-03-04T00:10:20.328Z,2.49
2023-03-04T00:12:47.575Z,2.42
2023-03-04T00:15:15.443Z,2.43
2023-03-04T00:17:42.701Z,2.42
2023-03-04T00:20:10.669Z,2.52
2023-03-04T00:22:38.155Z,2.44
2023-03-04T00:25:05.933Z,2.51
2023-03-04T00:27:33.106Z,2.49
2023-03-04T00:30:00.242Z,2.52
2023-03-04T00:32:27.411Z,2.45
2023-03-04T00:34:54.537Z,2.47
2023-03-04T00:37:22.043Z,2.41
2023-03-04T00:39:49.274Z,2.43
2023-03-04T00:42:16.405Z,2.52
2023-03-04T00:44:43.610Z,2.50
2023-03-04T00:47:10.838Z,2.46
2023-03-04T00:49:38.189Z,2.49
2023-03-04T00:52:05.415Z,2.43
2023-03-04T00:54:32.680Z,2.45
2023-03-04T00:56:59.884Z,2.43
2023-03-04T00:59:27.043Z,2.59
2023-03-04T01:01:54.249Z,2.54
2023-03-04T01:04:21.379Z,2.60
2023-03-04T01:06:48.603Z,2.54
2023-03-04T01:09:16.080Z,2.46
2023-03-04T01:11:43.309Z,2.43
2023-03-04T01:14:10.677Z,2.37
2023-03-04T01:16:37.827Z,2.44
2023-03-04T01:19:05.033Z,2.37
2023-03-04T01:21:32.069Z,2.38
2023-03-04T01:23:59.130Z,2.46
2023-03-04T01:26:26.277Z,2.42
2023-03-04T01:28:53.457Z,2.30
2023-03-04T01:31:20.727Z,2.28
2023-03-04T01:33:47.860Z,2.28
2023-03-04T01:36:14.926Z,2.26
2023-03-04T01:38:42.102Z,2.26
2023-03-04T01:41:10.196Z,2.26
2023-03-04T01:43:38.448Z,2.31
2023-03-04T01:46:07.211Z,2.24
2023-03-04T01:48:38.461Z,2.24
2023-03-04T01:51:11.296Z,2.21
2023-03-04T01:53:38.702Z,2.35
2023-03-04T01:56:37.585Z,2.22
2023-03-04T01:59:18.831Z,2.31
2023-03-04T02:01:53.046Z,2.34
2023-03-04T02:04:28.735Z,2.31
2023-03-04T02:06:57.532Z,2.33
2023-03-04T02:09:25.080Z,2.40
2023-03-04T02:11:53.595Z,2.35
2023-03-04T02:23:33.524Z,2.50
2023-03-04T02:26:29.351Z,2.49
2023-03-04T02:37:47.517Z,2.57
2023-03-04T02:55:47.784Z,2.50
2023-03-04T02:58:15.318Z,2.57
2023-03-04T03:18:11.346Z,2.57
2023-03-04T03:20:38.527Z,2.65
2023-03-04T04:29:51.154Z,3.00
2023-03-04T04:32:18.268Z,3.11
2023-03-04T04:34:45.392Z,2.98
2023-03-04T04:45:59.956Z,3.03
2023-03-04T04:51:21.735Z,3.03
2023-03-04T05:00:10.809Z,3.02
2023-03-04T05:02:38.908Z,3.11
2023-03-04T05:31:20.321Z,3.31
2023-03-04T05:36:42.242Z,3.22
2023-03-04T05:42:04.252Z,3.30
2023-03-04T06:02:40.033Z,3.36
2023-03-04T06:05:09.056Z,3.50
2023-03-04T06:07:36.601Z,3.44
2023-03-04T06:10:05.321Z,3.35
2023-03-04T06:12:32.761Z,3.24
2023-03-04T06:14:59.914Z,3.29
2023-03-04T06:17:27.056Z,3.31
2023-03-04T06:19:54.124Z,3.39
2023-03-04T06:22:21.382Z,3.26
2023-03-04T06:24:48.575Z,3.26
2023-03-04T06:27:16.790Z,3.22
2023-03-04T06:29:43.897Z,3.20
2023-03-04T06:32:11.317Z,3.26
2023-03-04T06:34:38.589Z,3.34
2023-03-04T06:37:05.807Z,3.29
2023-03-04T06:39:33.148Z,3.29
2023-03-04T06:42:00.552Z,3.20
2023-03-04T06:44:27.728Z,3.35
2023-03-04T06:46:54.906Z,3.31
2023-03-04T06:49:22.102Z,3.37
2023-03-04T06:51:49.315Z,3.38
2023-03-04T06:54:16.470Z,3.47
2023-03-04T06:56:43.519Z,3.59
2023-03-04T06:59:10.918Z,3.49
2023-03-04T07:01:38.285Z,3.52
2023-03-04T07:04:05.709Z,3.41
2023-03-04T07:06:33.397Z,3.37
2023-03-04T07:09:00.740Z,3.29
2023-03-04T07:11:28.116Z,3.37
2023-03-04T07:13:55.581Z,3.39
2023-03-04T07:16:24.310Z,3.50
2023-03-04T07:18:51.572Z,3.48
2023-03-04T07:21:19.190Z,3.52
2023-03-04T07:23:46.595Z,3.56
2023-03-04T07:26:14.043Z,3.58
2023-03-04T07:28:42.893Z,3.64
2023-03-04T07:31:25.563Z,3.66
2023-03-04T07:33:52.706Z,3.64
2023-03-04T07:36:20.193Z,3.65
2023-03-04T08:05:07.795Z,4.00
2023-03-04T08:08:06.936Z,4.00
2023-03-04T08:10:34.355Z,3.91
2023-03-04T08:13:01.621Z,3.75
2023-03-04T08:21:20.396Z,3.81
2023-03-04T08:23:48.275Z,3.87
2023-03-04T08:29:32.132Z,3.94
2023-03-04T08:37:50.846Z,3.95
2023-03-04T08:40:18.108Z,4.03
2023-03-04T08:42:45.220Z,4.00
2023-03-04T08:45:12.567Z,4.00
2023-03-04T08:47:40.946Z,4.03
2023-03-04T08:50:09.120Z,4.05
2023-03-04T08:52:36.740Z,4.07
2023-03-04T08:55:04.147Z,4.06
2023-03-04T08:57:31.286Z,4.12
2023-03-04T08:59:58.347Z,4.10
2023-03-04T09:02:25.402Z,4.16
2023-03-04T09:04:52.424Z,4.13
2023-03-04T09:07:19.497Z,4.12
2023-03-04T09:09:46.693Z,4.06
2023-03-04T09:12:13.730Z,4.18
2023-03-04T09:14:40.831Z,4.25
2023-03-04T09:17:09.337Z,4.20
2023-03-04T09:19:37.004Z,4.28
2023-03-04T09:22:04.090Z,4.40
2023-03-04T09:24:31.154Z,4.48
2023-03-04T09:26:58.244Z,4.46
2023-03-04T09:29:25.480Z,4.38
2023-03-04T09:31:52.569Z,4.43
2023-03-04T09:34:19.580Z,4.42
2023-03-04T09:36:46.891Z,4.39
2023-03-04T09:39:14.222Z,4.37
2023-03-04T09:41:46.926Z,4.30
2023-03-04T09:44:37.269Z,4.31
2023-03-04T09:47:11.574Z,4.23
2023-03-04T09:49:43.584Z,4.19
2023-03-04T09:52:15.321Z,4.27
2023-03-04T09:55:16.542Z,4.27
2023-03-04T09:58:07.434Z,4.33
2023-03-04T10:00:46.197Z,4.44
2023-03-04T10:03:39.262Z,4.59
2023-03-04T10:06:11.784Z,4.51
2023-03-04T10:09:11.403Z,4.53
2023-03-04T10:11:50.227Z,4.56
2023-03-04T10:14:23.028Z,4.46
2023-03-04T10:17:07.426Z,4.55
2023-03-04T10:20:21.293Z,4.54
2023-03-04T10:22:56.577Z,4.58
2023-03-04T10:25:26.624Z,4.67
2023-03-04T10:28:04.862Z,4.80
2023-03-04T10:30:43.830Z,4.83
2023-03-04T10:33:19.956Z,4.85
2023-03-04T10:36:19.538Z,4.90
2023-03-04T10:38:46.637Z,4.73
2023-03-04T10:41:22.692Z,4.95
2023-03-04T10:44:11.450Z,4.94
2023-03-04T10:46:47.599Z,4.96
2023-03-04T10:49:18.329Z,4.97
2023-03-04T10:52:24.157Z,4.97
2023-03-04T10:55:01.098Z,5.01
2023-03-04T10:57:39.500Z,4.99
2023-03-04T11:00:41.742Z,4.95
2023-03-04T11:03:36.101Z,4.89
2023-03-04T11:06:22.975Z,4.86
2023-03-04T11:08:59.811Z,4.93
2023-03-04T11:11:44.870Z,5.02
2023-03-04T11:14:44.422Z,4.89
2023-03-04T11:17:40.669Z,4.89
2023-03-04T11:20:23.090Z,4.92
2023-03-04T11:22:50.847Z,5.15
2023-03-04T11:25:40.894Z,5.00
2023-03-04T11:28:33.688Z,5.01
2023-03-04T11:31:30.617Z,5.06
2023-03-04T11:34:07.017Z,5.09
2023-03-04T11:37:06.245Z,5.09
2023-03-04T11:39:34.925Z,5.08
2023-03-04T11:42:38.783Z,4.92
2023-03-04T11:45:28.493Z,5.10
2023-03-04T11:48:26.555Z,5.01
2023-03-04T11:51:02.107Z,4.97
2023-03-04T11:53:40.728Z,5.19
2023-03-04T11:56:39.722Z,5.36
2023-03-04T11:59:40.924Z,5.31
2023-03-04T12:02:39.683Z,5.46
2023-03-04T12:05:37.148Z,5.39
2023-03-04T12:08:11.780Z,5.39
2023-03-04T12:11:02.962Z,5.39
2023-03-04T12:13:50.935Z,5.38
2023-03-04T12:16:42.028Z,5.38
2023-03-04T12:19:20.832Z,5.46
2023-03-04T12:22:03.709Z,5.53
2023-03-04T12:25:04.167Z,5.63
2023-03-04T12:27:55.802Z,5.75
2023-03-04T12:30:57.744Z,5.92
2023-03-04T12:34:21.190Z,6.05
2023-03-04T12:37:08.084Z,6.28
2023-03-04T12:40:13.462Z,6.50
2023-03-04T12:43:04.646Z,6.45
2023-03-04T12:46:18.126Z,6.63
2023-03-04T12:49:30.346Z,6.67
2023-03-04T12:52:03.634Z,6.81
2023-03-04T12:54:43.589Z,6.81
2023-03-04T12:57:22.130Z,6.94
2023-03-04T13:00:33.060Z,6.97
2023-03-04T13:03:29.528Z,7.01
2023-03-04T13:06:09.955Z,7.29
2023-03-04T13:09:21.052Z,7.54
2023-03-04T13:12:12.919Z,7.68
2023-03-04T13:14:40.046Z,7.61
2023-03-04T13:17:55.908Z,7.72
2023-03-04T13:20:41.229Z,7.68
2023-03-04T13:23:13.948Z,7.64
2023-03-04T13:25:55.906Z,7.74
2023-03-04T13:28:27.132Z,7.75
2023-03-04T13:30:57.189Z,7.48
2023-03-04T13:33:24.155Z,7.12
2023-03-04T13:36:00.078Z,6.77
2023-03-04T13:38:37.168Z,6.52
2023-03-04T13:41:24.978Z,6.08
2023-03-04T13:44:06.147Z,6.30
2023-03-04T13:46:43.842Z,6.13
2023-03-04T13:49:24.718Z,6.02
2023-03-04T13:51:52.449Z,5.88
2023-03-04T13:54:32.387Z,5.83
2023-03-04T13:57:02.066Z,5.93
2023-03-04T13:59:57.144Z,5.78
2023-03-04T14:02:26.189Z,5.68
2023-03-04T14:05:02.105Z,5.84
2023-03-04T14:07:37.612Z,6.00
2023-03-04T14:10:14.992Z,6.16
2023-03-04T14:13:04.243Z,6.06
2023-03-04T14:15:33.516Z,5.89
2023-03-04T14:18:04.840Z,6.00
2023-03-04T14:20:49.462Z,6.14
2023-03-04T14:23:45.902Z,6.31
2023-03-04T14:26:18.683Z,6.04
2023-03-04T14:28:52.274Z,5.91
2023-03-04T14:31:24.290Z,5.92
2023-03-04T14:33:59.865Z,5.95
2023-03-04T14:36:28.291Z,6.10
2023-03-04T14:39:05.935Z,6.19
2023-03-04T14:41:43.232Z,6.28
2023-03-04T14:44:38.087Z,6.36
2023-03-04T14:47:40.806Z,6.23
2023-03-04T14:50:17.224Z,6.10
2023-03-04T14:53:24.508Z,6.07
2023-03-04T14:56:08.081Z,6.02
2023-03-04T14:58:52.074Z,6.02
2023-03-04T15:01:23.735Z,5.87
2023-03-04T15:04:13.346Z,5.83
2023-03-04T15:06:51.485Z,5.73
2023-03-04T15:09:26.318Z,5.70
2023-03-04T15:12:03.998Z,5.69
2023-03-04T15:14:50.591Z,5.71
2023-03-04T15:17:39.505Z,5.59
2023-03-04T15:20:06.461Z,5.58
2023-03-04T15:22:49.909Z,5.52
2023-03-04T15:25:20.395Z,5.40
2023-03-04T15:27:49.501Z,5.25
2023-03-04T15:30:29.660Z,5.40
2023-03-04T15:33:00.096Z,5.30
2023-03-04T15:35:33.446Z,5.22
2023-03-04T15:38:02.316Z,5.02
2023-03-04T15:40:39.565Z,4.95
2023-03-04T15:43:10.095Z,4.96
2023-03-04T15:45:39.217Z,4.94
2023-03-04T15:48:10.909Z,4.79
2023-03-04T15:51:00.685Z,4.73
2023-03-04T15:53:38.169Z,4.72
2023-03-04T15:56:09.236Z,4.64
2023-03-04T15:58:36.405Z,4.48
2023-03-04T16:01:03.724Z,4.59
2023-03-04T16:03:31.212Z,4.50
2023-03-04T16:05:59.472Z,4.37
2023-03-04T16:08:26.671Z,4.33
2023-03-04T16:10:54.800Z,4.23
2023-03-04T16:13:24.205Z,4.16
2023-03-04T16:15:51.579Z,4.05
2023-03-04T16:18:18.770Z,3.96
2023-03-04T16:20:48.947Z,3.97
2023-03-04T16:23:23.944Z,3.89
2023-03-04T16:25:56.227Z,3.85
2023-03-04T16:28:23.771Z,3.84
2023-03-04T16:30:50.970Z,3.78
2023-03-04T16:33:18.078Z,3.68
2023-03-04T16:35:46.592Z,3.68
2023-03-04T16:38:33.273Z,3.57
2023-03-04T16:41:04.575Z,3.46
2023-03-04T16:43:32.086Z,3.38
2023-03-04T16:45:59.183Z,3.38
2023-03-04T16:48:26.244Z,3.39
2023-03-04T16:50:53.430Z,3.33
2023-03-04T16:53:39.890Z,3.27
2023-03-04T16:56:13.985Z,3.36
2023-03-04T16:58:42.587Z,3.31
2023-03-04T17:01:28.679Z,3.27
2023-03-04T17:03:56.791Z,3.32
2023-03-04T17:06:24.645Z,3.32
2023-03-04T17:08:51.964Z,3.23
2023-03-04T17:11:22.554Z,3.18
2023-03-04T17:13:50.364Z,3.17
2023-03-04T17:16:18.306Z,3.20
2023-03-04T17:18:46.101Z,3.10
2023-03-04T17:21:25.970Z,3.16
2023-03-04T17:23:54.258Z,3.20
2023-03-04T17:26:22.718Z,3.05
2023-03-04T17:28:51.709Z,2.88
2023-03-04T17:31:21.005Z,3.03
2023-03-04T17:33:48.943Z,2.88
2023-03-04T17:36:18.195Z,2.87
2023-03-04T17:38:45.600Z,2.90
2023-03-04T17:41:17.557Z,2.93
2023-03-04T17:43:51.123Z,2.82
2023-03-04T17:46:25.879Z,2.90
2023-03-04T17:48:59.284Z,2.86
2023-03-04T17:51:36.475Z,2.88
2023-03-04T17:54:05.676Z,2.87
2023-03-04T17:56:34.501Z,2.79
2023-03-04T17:59:05.729Z,2.80
2023-03-04T18:01:32.775Z,2.77
2023-03-04T18:04:00.130Z,2.75
2023-03-04T18:06:27.266Z,2.76
2023-03-04T18:08:54.974Z,2.70
2023-03-04T18:11:24.997Z,2.72
2023-03-04T18:13:54.278Z,2.74
2023-03-04T18:16:27.166Z,2.66
2023-03-04T18:18:57.896Z,2.63
2023-03-04T18:21:27.140Z,2.62
2023-03-04T18:23:54.557Z,2.56
2023-03-04T18:26:25.364Z,2.55
2023-03-04T18:28:54.382Z,2.61
2023-03-04T18:31:31.081Z,2.56
2023-03-04T18:34:01.399Z,2.57
2023-03-04T18:36:29.647Z,2.50
2023-03-04T18:38:59.394Z,2.43
2023-03-04T18:41:27.840Z,2.36
2023-03-04T18:43:55.660Z,2.42
2023-03-04T18:46:53.604Z,2.40
2023-03-04T18:49:21.730Z,2.32
2023-03-04T18:51:48.882Z,2.34
2023-03-04T18:54:15.909Z,2.27
2023-03-04T18:57:02.142Z,2.21
2023-03-04T18:59:42.800Z,2.24
2023-03-04T19:02:16.988Z,2.27
2023-03-04T19:04:44.166Z,2.17
2023-03-04T19:07:11.179Z,2.16
2023-03-04T19:09:38.273Z,2.11
2023-03-04T19:12:06.658Z,2.05
2023-03-04T19:14:33.693Z,2.04
2023-03-04T19:17:00.700Z,1.98
2023-03-04T19:19:27.979Z,1.98
2023-03-04T19:21:55.130Z,1.92
2023-03-04T19:24:22.169Z,1.92
2023-03-04T19:26:49.324Z,1.82
2023-03-04T19:29:17.185Z,1.74
2023-03-04T19:31:44.171Z,1.70
2023-03-04T19:34:11.514Z,1.60
2023-03-04T19:36:39.430Z,1.67
2023-03-04T19:39:08.077Z,1.71
2023-03-04T19:41:35.222Z,1.53
2023-03-04T19:44:03.064Z,1.55
2023-03-04T19:46:31.467Z,1.58
2023-03-04T19:48:58.928Z,1.47
2023-03-04T19:51:27.033Z,1.51
2023-03-04T19:53:54.875Z,1.53
2023-03-04T19:56:23.972Z,1.38
2023-03-04T19:58:55.008Z,1.38
2023-03-04T20:01:34.027Z,1.28
2023-03-04T20:04:21.473Z,1.36
2023-03-04T20:06:51.079Z,1.31
2023-03-04T20:09:19.537Z,1.30
2023-03-04T20:11:57.656Z,1.32
2023-03-04T20:14:27.650Z,1.20
2023-03-04T20:16:58.849Z,1.15
2023-03-04T20:19:26.174Z,1.16
2023-03-04T20:21:53.380Z,1.25
2023-03-04T20:24:23.402Z,1.14
2023-03-04T20:26:51.200Z,1.17
2023-03-04T20:29:18.821Z,1.09
2023-03-04T20:31:46.648Z,1.14
2023-03-04T20:34:14.542Z,1.19
2023-03-04T20:36:41.901Z,1.27
2023-03-04T20:39:27.505Z,1.21
2023-03-04T20:41:59.365Z,1.16
2023-03-04T20:44:27.177Z,0.99
2023-03-04T20:46:54.489Z,1.11
2023-03-04T20:49:26.971Z,1.07
2023-03-04T20:52:00.762Z,1.05
2023-03-04T20:54:27.877Z,1.02
2023-03-04T20:56:55.041Z,1.02
2023-03-04T20:59:22.268Z,0.99
2023-03-04T21:01:49.767Z,0.88
2023-03-04T21:04:18.258Z,0.91
2023-03-04T21:06:47.537Z,0.96
2023-03-04T21:09:18.340Z,0.82
2023-03-04T21:11:45.934Z,0.83
2023-03-04T21:14:22.059Z,0.84
2023-03-04T21:16:52.174Z,0.82
2023-03-04T21:19:30.880Z,0.81
2023-03-04T21:22:00.545Z,0.79
2023-03-04T21:24:32.146Z,0.86
2023-03-04T21:27:01.625Z,0.84
2023-03-04T21:29:29.501Z,0.82
2023-03-04T21:32:22.439Z,0.72
2023-03-04T21:34:52.462Z,0.67
2023-03-04T21:37:21.969Z,0.71
2023-03-04T21:39:49.209Z,0.61
2023-03-04T21:42:16.401Z,0.56
2023-03-04T21:44:51.630Z,0.52
2023-03-04T21:47:21.143Z,0.62
2023-03-04T21:49:48.541Z,0.69
2023-03-04T21:52:17.168Z,0.62
2023-03-04T21:54:44.432Z,0.48
2023-03-04T21:57:12.095Z,0.45
2023-03-04T21:59:40.293Z,0.47
2023-03-04T22:02:14.321Z,0.43
2023-03-04T22:04:41.806Z,0.42
2023-03-04T22:07:10.283Z,0.41
2023-03-04T22:09:37.983Z,0.50
2023-03-04T22:12:05.671Z,0.46
2023-03-04T22:14:32.839Z,0.42
2023-03-04T22:17:00.086Z,0.35
2023-03-04T22:19:32.347Z,0.40
2023-03-04T22:21:59.962Z,0.42
2023-03-04T22:24:27.647Z,0.40
2023-03-04T22:26:56.908Z,0.35
2023-03-04T22:29:24.081Z,0.43
2023-03-04T22:31:51.246Z,0.36
2023-03-04T22:34:18.702Z,0.37
2023-03-04T22:36:47.422Z,0.40
2023-03-04T22:39:23.087Z,0.28
2023-03-04T22:41:50.439Z,0.26
2023-03-04T22:44:17.984Z,0.22
2023-03-04T22:46:45.123Z,0.25
2023-03-04T22:49:14.716Z,0.20
2023-03-04T22:51:44.405Z,0.34
2023-03-04T22:54:14.901Z,0.33
2023-03-04T22:56:42.416Z,0.21
2023-03-04T22:59:09.861Z,0.22
2023-03-04T23:01:37.663Z,0.24
2023-03-04T23:04:05.007Z,0.18
2023-03-04T23:06:32.461Z,0.22
2023-03-04T23:09:00.503Z,0.21
2023-03-04T23:11:35.476Z,0.23
2023-03-04T23:14:06.618Z,0.25
2023-03-04T23:16:42.438Z,0.18
2023-03-04T23:19:13.004Z,0.13
2023-03-04T23:21:40.266Z,0.07
2023-03-04T23:24:09.191Z,0.14
2023-03-04T23:26:39.447Z,0.10
2023-03-04T23:29:10.001Z,0.15
2023-03-04T23:31:37.143Z,0.11
2023-03-04T23:34:05.221Z,0.06
2023-03-04T23:36:36.254Z,0.07
2023-03-04T23:39:05.925Z,0.15
2023-03-04T23:41:34.665Z,0.19
2023-03-04T23:44:02.415Z,0.08
2023-03-04T23:49:28.037Z,0.11
2023-03-04T23:57:46.756Z,0.04
